Time;durP1;ratioP1;P1;durP2;ratioP2;P2;SDS_P1;SDS_P2;PMS_P1;PMS_P2;Temp;Humidity;BMP_temperature;BMP_pressure;BME280_temperature;BME280_humidity;BME280_pressure;Samples;Min_cycle;Max_cycle;Signal;HPM_P1;HPM_P2
2022/11/24 00:01:32;;;;;;;20.65;10.63;;;7.00;99.90;;;;;;5094424;28;20048;-63
2022/11/24 00:04:01;;;;;;;26.75;11.23;;;6.90;99.90;;;;;;5092520;28;20048;-63
2022/11/24 00:06:29;;;;;;;25.13;10.18;;;6.90;99.90;;;;;;5091191;28;20472;-63
2022/11/24 00:08:58;;;;;;;23.23;10.35;;;6.90;99.90;;;;;;5092064;28;20087;-62
2022/11/24 00:11:27;;;;;;;22.67;10.73;;;6.90;99.90;;;;;;5093255;28;20052;-61
2022/11/24 00:13:55;;;;;;;22.48;11.05;;;6.90;99.90;;;;;;5093007;28;20400;-61
2022/11/24 00:16:24;;;;;;;15.63;9.98;;;6.90;99.90;;;;;;5093834;28;20044;-62
2022/11/24 00:18:53;;;;;;;26.48;10.70;;;6.90;99.90;;;;;;5092258;28;20488;-62
2022/11/24 00:21:21;;;;;;;21.80;11.25;;;6.80;99.90;;;;;;5092406;28;20040;-62
2022/11/24 00:23:49;;;;;;;17.38;10.07;;;6.80;99.90;;;;;;5093899;28;20044;-62
2022/11/24 00:26:19;;;;;;;28.27;10.07;;;6.80;99.90;;;;;;5091515;28;20047;-61
2022/11/24 00:28:47;;;;;;;17.27;9.67;;;6.80;99.90;;;;;;5092089;28;20044;-62
2022/11/24 00:31:16;;;;;;;23.42;10.18;;;6.70;99.90;;;;;;5093725;28;20051;-62
2022/11/24 00:33:43;;;;;;;21.45;10.07;;;6.70;99.90;;;;;;5093391;28;20048;-62
2022/11/24 00:36:10;;;;;;;18.23;9.43;;;6.70;99.90;;;;;;5091985;28;20055;-62
2022/11/24 00:38:37;;;;;;;19.90;10.25;;;6.70;99.90;;;;;;5093388;28;20048;-62
2022/11/24 00:41:05;;;;;;;22.73;9.52;;;6.70;99.90;;;;;;5091856;28;20047;-62
2022/11/24 00:43:33;;;;;;;21.70;9.65;;;6.60;99.90;;;;;;5091895;28;20063;-63
2022/11/24 00:46:00;;;;;;;17.55;9.18;;;6.60;99.90;;;;;;5092279;28;20051;-62
2022/11/24 00:48:27;;;;;;;19.20;10.50;;;6.60;99.90;;;;;;5092925;28;20047;-63
2022/11/24 00:50:59;;;;;;;21.35;9.43;;;6.50;99.90;;;;;;5093355;28;20051;-62
2022/11/24 00:53:26;;;;;;;19.85;9.18;;;6.50;99.90;;;;;;5091133;28;20064;-62
2022/11/24 00:55:54;;;;;;;23.58;9.77;;;6.50;99.90;;;;;;5092874;28;20048;-62
2022/11/24 00:58:21;;;;;;;24.33;10.32;;;6.50;99.90;;;;;;5089603;28;20055;-61
2022/11/24 01:00:50;;;;;;;24.70;10.73;;;6.50;99.90;;;;;;5092839;28;20422;-63
2022/11/24 01:03:18;;;;;;;23.45;9.07;;;6.70;99.90;;;;;;5090825;28;20050;-62
2022/11/24 01:05:45;;;;;;;16.25;8.73;;;6.70;99.90;;;;;;5093060;28;20051;-62
2022/11/24 01:08:12;;;;;;;18.77;8.38;;;6.70;99.90;;;;;;5092419;28;20412;-62
2022/11/24 01:10:39;;;;;;;26.23;9.00;;;6.70;99.90;;;;;;5092986;28;20056;-63
2022/11/24 01:13:06;;;;;;;19.00;8.35;;;6.70;99.90;;;;;;5091505;28;20059;-61
2022/11/24 01:15:35;;;;;;;29.05;9.60;;;6.60;99.90;;;;;;5092477;28;20044;-62
2022/11/24 01:18:05;;;;;;;23.35;8.75;;;6.60;99.90;;;;;;5092602;28;20408;-62
2022/11/24 01:20:32;;;;;;;20.42;9.43;;;6.60;99.90;;;;;;5091814;28;20143;-63
2022/11/24 01:22:59;;;;;;;20.90;8.98;;;6.60;99.90;;;;;;5092144;28;20055;-62
2022/11/24 01:25:26;;;;;;;21.30;8.85;;;6.50;99.90;;;;;;5091587;28;20510;-62
2022/11/24 01:27:53;;;;;;;24.45;8.13;;;6.50;99.90;;;;;;5091110;28;20044;-63
2022/11/24 01:30:22;;;;;;;18.33;7.70;;;6.50;99.90;;;;;;5091885;28;20488;-64
2022/11/24 01:32:49;;;;;;;17.83;7.25;;;6.40;99.90;;;;;;5092382;28;20044;-64
2022/11/24 01:35:17;;;;;;;19.50;8.60;;;6.40;99.90;;;;;;5092524;28;20063;-64
2022/11/24 01:37:44;;;;;;;28.77;8.27;;;6.40;99.90;;;;;;5087715;28;20044;-63
2022/11/24 01:40:12;;;;;;;28.15;8.25;;;6.40;99.90;;;;;;5092082;28;20068;-64
2022/11/24 01:42:48;;;;;;;24.75;8.18;;;6.40;99.90;;;;;;5088201;28;20063;-64
2022/11/24 01:45:32;;;;;;;20.88;7.43;;;6.40;99.90;;;;;;5092699;28;20048;-62
2022/11/24 01:48:01;;;;;;;21.30;7.47;;;6.30;99.90;;;;;;5090924;28;20059;-63
2022/11/24 01:50:29;;;;;;;33.00;8.20;;;6.40;99.90;;;;;;5090694;28;20051;-62
2022/11/24 01:52:57;;;;;;;18.00;7.35;;;6.40;99.90;;;;;;5092044;28;20044;-62
2022/11/24 01:55:29;;;;;;;24.17;7.95;;;6.50;99.90;;;;;;5092217;28;20407;-63
2022/11/24 01:58:01;;;;;;;19.02;6.75;;;6.50;99.90;;;;;;5091516;28;20055;-63
2022/11/24 02:00:28;;;;;;;20.27;6.93;;;6.60;99.90;;;;;;5089576;28;20044;-63
2022/11/24 02:02:57;;;;;;;22.02;6.88;;;6.60;99.90;;;;;;5091004;28;20044;-63
2022/11/24 02:05:29;;;;;;;15.75;6.50;;;6.60;99.90;;;;;;5090589;28;20063;-63
2022/11/24 02:08:00;;;;;;;23.92;7.00;;;6.70;99.90;;;;;;5092024;28;20047;-63
2022/11/24 02:10:27;;;;;;;26.05;7.20;;;6.70;99.90;;;;;;5092349;28;20040;-63
2022/11/24 02:12:57;;;;;;;16.80;6.45;;;6.70;99.90;;;;;;5089096;28;20047;-62
2022/11/24 02:15:25;;;;;;;26.42;7.40;;;6.70;99.90;;;;;;5092311;28;20052;-63
2022/11/24 02:17:52;;;;;;;22.13;6.28;;;6.70;99.90;;;;;;5090171;28;20339;-63
2022/11/24 02:20:19;;;;;;;17.52;6.57;;;6.80;99.90;;;;;;5091989;28;20048;-63
2022/11/24 02:22:53;;;;;;;15.90;5.65;;;6.80;99.90;;;;;;5090514;28;20058;-64
2022/11/24 02:25:35;;;;;;;22.70;6.25;;;6.80;99.90;;;;;;5090360;28;20407;-63
2022/11/24 02:28:07;;;;;;;17.35;5.80;;;6.80;99.90;;;;;;5091700;28;20055;-63
2022/11/24 02:30:35;;;;;;;23.23;6.57;;;6.90;99.90;;;;;;5089427;28;20071;-62
2022/11/24 02:33:02;;;;;;;17.20;6.43;;;6.90;99.90;;;;;;5091082;28;20040;-63
2022/11/24 02:35:29;;;;;;;29.73;6.88;;;6.80;99.90;;;;;;5091795;28;20051;-62
2022/11/24 02:37:56;;;;;;;20.05;5.68;;;6.80;99.90;;;;;;5090229;28;20483;-61
2022/11/24 02:40:26;;;;;;;18.02;6.13;;;6.70;99.90;;;;;;5091563;28;20044;-63
2022/11/24 02:42:56;;;;;;;23.37;5.77;;;6.70;99.90;;;;;;5090365;28;20063;-62
2022/11/24 02:45:26;;;;;;;19.10;6.63;;;6.60;99.90;;;;;;5092225;28;20144;-63
2022/11/24 02:47:53;;;;;;;20.27;6.37;;;6.60;99.90;;;;;;5089584;28;20040;-63
2022/11/24 02:50:20;;;;;;;28.40;5.65;;;6.50;99.90;;;;;;5091103;28;20724;-63
2022/11/24 02:52:47;;;;;;;14.05;5.88;;;6.50;99.90;;;;;;5094937;28;20407;-62
2022/11/24 02:55:14;;;;;;;22.38;6.00;;;6.50;99.90;;;;;;5092291;28;20055;-64
2022/11/24 02:57:41;;;;;;;16.67;5.53;;;6.50;99.90;;;;;;5095723;28;20045;-62
2022/11/24 03:00:10;;;;;;;21.75;5.55;;;6.50;99.90;;;;;;5095075;28;20407;-63
2022/11/24 03:02:39;;;;;;;15.07;5.43;;;6.50;99.90;;;;;;5094242;28;20113;-62
2022/11/24 03:05:06;;;;;;;21.65;6.18;;;6.40;99.90;;;;;;5094118;28;20059;-62
2022/11/24 03:07:33;;;;;;;17.75;5.70;;;6.40;99.90;;;;;;5093673;28;20055;-62
2022/11/24 03:10:00;;;;;;;20.98;5.45;;;6.40;99.90;;;;;;5095345;28;20050;-62
2022/11/24 03:12:27;;;;;;;21.17;5.55;;;6.40;99.90;;;;;;5093208;28;20475;-63
2022/11/24 03:14:54;;;;;;;23.58;5.75;;;6.40;99.90;;;;;;5094889;28;20044;-63
2022/11/24 03:17:21;;;;;;;23.73;5.70;;;6.50;99.90;;;;;;5091903;28;20051;-63
2022/11/24 03:19:50;;;;;;;17.92;5.43;;;6.40;99.90;;;;;;5094752;28;20048;-63
2022/11/24 03:22:17;;;;;;;15.18;5.75;;;6.40;99.90;;;;;;5094328;28;20431;-62
2022/11/24 03:24:44;;;;;;;14.32;5.05;;;6.50;99.90;;;;;;5093763;28;20157;-62
2022/11/24 03:27:11;;;;;;;23.90;5.45;;;6.50;99.90;;;;;;5093762;28;20110;-63
2022/11/24 03:29:38;;;;;;;19.98;5.55;;;6.50;99.90;;;;;;5094238;28;20055;-63
2022/11/24 03:32:05;;;;;;;17.95;5.85;;;6.50;99.90;;;;;;5093348;28;20067;-63
2022/11/24 03:34:32;;;;;;;19.85;5.38;;;6.50;99.90;;;;;;5095012;28;20403;-63
2022/11/24 03:37:00;;;;;;;16.92;5.22;;;6.50;99.90;;;;;;5093058;28;20051;-61
2022/11/24 03:39:27;;;;;;;21.88;5.50;;;6.50;99.90;;;;;;5091017;28;20048;-62
2022/11/24 03:41:54;;;;;;;17.20;5.43;;;6.50;99.90;;;;;;5093103;28;20054;-63
2022/11/24 03:44:21;;;;;;;15.98;4.88;;;6.50;99.90;;;;;;5094644;28;20040;-62
2022/11/24 03:46:49;;;;;;;17.10;6.10;;;6.50;99.90;;;;;;5093236;28;20059;-62
2022/11/24 03:49:16;;;;;;;25.33;5.97;;;6.50;99.90;;;;;;5093023;28;20051;-63
2022/11/24 03:51:43;;;;;;;13.48;5.10;;;6.50;99.90;;;;;;5094602;28;20052;-61
2022/11/24 03:54:12;;;;;;;21.67;5.15;;;6.50;99.90;;;;;;5094635;28;20043;-62
2022/11/24 03:56:38;;;;;;;14.45;5.60;;;6.50;99.90;;;;;;5091530;28;20102;-61
2022/11/24 03:59:05;;;;;;;22.13;5.82;;;6.40;99.90;;;;;;5094164;28;20044;-63
2022/11/24 04:01:32;;;;;;;18.05;4.97;;;6.40;99.90;;;;;;5091085;28;20048;-62
2022/11/24 04:03:59;;;;;;;25.45;5.45;;;6.40;99.90;;;;;;5092344;28;20054;-63
2022/11/24 04:06:26;;;;;;;18.00;5.05;;;6.30;99.90;;;;;;5093173;28;20059;-63
2022/11/24 04:08:54;;;;;;;13.70;4.82;;;6.30;99.90;;;;;;5094394;28;20040;-63
2022/11/24 04:14:07;;;;;;;15.02;4.65;;;6.30;99.90;;;;;;5093903;28;20510;-62
2022/11/24 04:16:34;;;;;;;18.92;4.65;;;6.30;99.90;;;;;;5093182;28;20395;-62
2022/11/24 04:19:00;;;;;;;16.80;4.45;;;6.30;99.90;;;;;;5092025;28;20070;-63
2022/11/24 04:21:27;;;;;;;14.52;4.20;;;6.30;99.90;;;;;;5093831;28;20499;-63
2022/11/24 04:23:54;;;;;;;15.93;4.90;;;6.30;99.90;;;;;;5092636;28;20109;-63
2022/11/24 04:26:23;;;;;;;12.75;3.95;;;6.30;99.90;;;;;;5091986;28;20510;-62
2022/11/24 04:28:50;;;;;;;13.65;4.50;;;6.30;99.90;;;;;;5094045;28;20040;-62
2022/11/24 04:31:17;;;;;;;19.52;4.72;;;6.30;99.90;;;;;;5093308;28;20463;-62
2022/11/24 04:33:44;;;;;;;23.55;5.10;;;6.30;99.90;;;;;;5093573;28;20051;-62
2022/11/24 04:36:10;;;;;;;16.13;4.55;;;6.40;99.90;;;;;;5093752;28;20435;-62
2022/11/24 04:38:37;;;;;;;16.30;4.88;;;6.40;99.90;;;;;;5092733;28;20035;-62
2022/11/24 04:41:05;;;;;;;23.83;5.05;;;6.40;99.90;;;;;;5092477;28;20048;-63
2022/11/24 04:43:33;;;;;;;23.45;5.40;;;6.40;99.90;;;;;;5093089;28;20411;-63
2022/11/24 04:46:01;;;;;;;16.65;4.50;;;6.40;99.90;;;;;;5091825;28;20047;-63
2022/11/24 04:48:28;;;;;;;19.67;5.20;;;6.50;99.90;;;;;;5090484;28;20447;-62
2022/11/24 04:50:55;;;;;;;14.82;4.40;;;6.40;99.90;;;;;;5092031;28;20122;-63
2022/11/24 04:53:22;;;;;;;11.27;3.75;;;6.40;99.90;;;;;;5091702;28;20055;-63
2022/11/24 04:55:49;;;;;;;20.73;4.15;;;6.50;99.90;;;;;;5093104;28;20052;-62
2022/11/24 04:58:16;;;;;;;19.33;4.10;;;6.40;99.90;;;;;;5092115;28;20484;-64
2022/11/24 05:00:44;;;;;;;19.05;4.47;;;6.40;99.90;;;;;;5077422;28;20052;-64
2022/11/24 05:03:11;;;;;;;11.73;4.68;;;6.40;99.90;;;;;;5081088;28;20040;-63
2022/11/24 05:05:38;;;;;;;22.50;4.80;;;6.40;99.90;;;;;;5079787;28;20057;-62
2022/11/24 05:08:05;;;;;;;18.35;5.10;;;6.40;99.90;;;;;;5081094;28;20496;-62
2022/11/24 05:10:34;;;;;;;17.90;4.07;;;6.40;99.90;;;;;;5085655;28;20055;-62
2022/11/24 05:13:01;;;;;;;21.05;4.28;;;6.40;99.90;;;;;;5084245;28;20047;-63
2022/11/24 05:15:28;;;;;;;16.42;4.07;;;6.30;99.90;;;;;;5088915;28;20126;-62
2022/11/24 05:17:57;;;;;;;21.25;4.53;;;6.30;99.90;;;;;;5085955;28;20044;-63
2022/11/24 05:20:24;;;;;;;20.23;4.03;;;6.30;99.90;;;;;;5079931;28;20047;-62
2022/11/24 05:22:52;;;;;;;19.23;4.35;;;6.20;99.90;;;;;;5078462;28;20052;-62
2022/11/24 05:25:19;;;;;;;15.90;4.65;;;6.20;99.90;;;;;;5085510;28;20125;-62
2022/11/24 05:27:45;;;;;;;13.35;3.63;;;6.30;99.90;;;;;;5089615;28;20098;-63
2022/11/24 05:30:13;;;;;;;21.00;4.32;;;6.20;99.90;;;;;;5088487;28;20101;-62
2022/11/24 05:32:40;;;;;;;14.60;4.15;;;6.10;99.90;;;;;;5084720;28;20052;-62
2022/11/24 05:35:10;;;;;;;9.30;3.72;;;6.10;99.90;;;;;;5075091;28;20048;-62
2022/11/24 05:37:37;;;;;;;12.27;3.80;;;6.10;99.90;;;;;;5086521;28;20051;-63
2022/11/24 05:40:05;;;;;;;15.82;3.97;;;6.20;99.90;;;;;;5088201;28;20047;-62
2022/11/24 05:42:41;;;;;;;15.50;4.15;;;6.10;99.90;;;;;;5083768;28;20052;-62
2022/11/24 05:45:11;;;;;;;14.65;4.05;;;6.10;99.90;;;;;;5085985;28;20416;-62
2022/11/24 05:47:39;;;;;;;12.32;4.32;;;6.10;99.90;;;;;;5085146;28;20047;-61
2022/11/24 05:50:07;;;;;;;17.40;5.28;;;6.10;99.90;;;;;;5084508;28;20040;-62
2022/11/24 05:52:36;;;;;;;18.55;4.53;;;6.10;99.90;;;;;;5082308;28;20056;-62
2022/11/24 05:55:03;;;;;;;16.23;4.00;;;6.10;99.90;;;;;;5083197;28;20461;-63
2022/11/24 05:57:30;;;;;;;10.52;3.60;;;6.10;99.90;;;;;;5083717;28;20079;-61
2022/11/24 05:59:57;;;;;;;9.80;3.53;;;6.10;99.90;;;;;;5088679;28;20044;-63
2022/11/24 06:02:24;;;;;;;11.35;3.47;;;6.10;99.90;;;;;;5083741;28;20491;-62
2022/11/24 06:04:50;;;;;;;16.92;4.13;;;6.10;99.90;;;;;;5079443;28;20556;-61
2022/11/24 06:07:18;;;;;;;19.42;4.75;;;6.10;99.90;;;;;;5082953;28;20056;-63
2022/11/24 06:09:46;;;;;;;15.20;3.97;;;6.10;99.90;;;;;;5082206;28;20048;-63
2022/11/24 06:12:13;;;;;;;17.15;4.30;;;6.10;99.90;;;;;;5078099;28;20044;-61
2022/11/24 06:14:40;;;;;;;16.52;4.30;;;6.10;99.90;;;;;;5087813;28;20123;-61
2022/11/24 06:17:09;;;;;;;17.45;4.45;;;6.00;99.90;;;;;;5078828;28;20052;-61
2022/11/24 06:19:36;;;;;;;20.92;4.80;;;6.00;99.90;;;;;;5084047;28;20048;-62
2022/11/24 06:22:03;;;;;;;14.15;4.65;;;6.00;99.90;;;;;;5085769;28;20052;-61
2022/11/24 06:24:30;;;;;;;15.43;3.65;;;6.00;99.90;;;;;;5082005;28;20044;-61
2022/11/24 06:26:58;;;;;;;10.90;3.88;;;6.00;99.90;;;;;;5092821;28;20044;-62
2022/11/24 06:29:25;;;;;;;16.45;4.05;;;6.00;99.90;;;;;;5083024;28;20052;-61
2022/11/24 06:31:52;;;;;;;13.45;4.22;;;6.00;99.90;;;;;;5081613;28;20059;-62
2022/11/24 06:34:19;;;;;;;14.23;3.80;;;5.90;99.90;;;;;;5087859;28;20113;-62
2022/11/24 06:36:45;;;;;;;13.23;3.63;;;6.00;99.90;;;;;;5081304;28;20094;-62
2022/11/24 06:39:12;;;;;;;15.73;3.47;;;6.00;99.90;;;;;;5091112;28;20500;-62
2022/11/24 06:41:39;;;;;;;12.38;3.70;;;5.90;99.90;;;;;;5081820;28;20051;-60
2022/11/24 06:44:07;;;;;;;17.63;3.83;;;6.00;99.90;;;;;;5089155;28;20064;-61
2022/11/24 06:46:34;;;;;;;13.45;4.05;;;5.90;99.90;;;;;;5088267;28;20188;-62
2022/11/24 06:49:01;;;;;;;15.32;5.05;;;5.90;99.90;;;;;;5086969;28;20040;-63
2022/11/24 06:51:28;;;;;;;19.02;3.88;;;5.90;99.90;;;;;;5081603;28;20056;-62
2022/11/24 06:53:55;;;;;;;17.65;4.18;;;5.90;99.90;;;;;;5080929;28;20060;-62
2022/11/24 06:56:22;;;;;;;11.60;4.10;;;5.80;99.90;;;;;;5085159;28;20553;-63
2022/11/24 06:58:51;;;;;;;13.93;5.07;;;5.90;99.90;;;;;;5090699;28;20442;-63
2022/11/24 07:01:21;;;;;;;12.43;3.70;;;5.80;99.90;;;;;;5088623;28;20399;-64
2022/11/24 07:03:49;;;;;;;14.43;4.03;;;5.80;99.90;;;;;;5085607;28;20059;-62
2022/11/24 07:06:17;;;;;;;11.77;3.55;;;5.80;99.90;;;;;;5088504;28;20052;-62
2022/11/24 07:08:44;;;;;;;14.15;3.58;;;5.70;99.90;;;;;;5086715;28;20052;-63
2022/11/24 07:11:14;;;;;;;17.55;4.32;;;5.80;99.90;;;;;;5095015;28;20514;-62
2022/11/24 07:13:41;;;;;;;13.53;3.97;;;5.80;99.90;;;;;;5084223;28;20052;-62
2022/11/24 07:16:13;;;;;;;11.88;3.28;;;5.00;99.90;;;;;;5084826;28;20197;-63
2022/11/24 07:18:42;;;;;;;11.38;3.38;;;5.70;99.90;;;;;;5087444;28;20052;-61
2022/11/24 07:21:09;;;;;;;13.10;4.03;;;5.80;99.90;;;;;;5085738;28;20052;-61
2022/11/24 07:23:36;;;;;;;15.02;3.47;;;5.80;99.90;;;;;;5088524;28;20570;-61
2022/11/24 07:26:03;;;;;;;9.48;3.42;;;5.70;99.90;;;;;;5090753;28;20044;-63
2022/11/24 07:28:31;;;;;;;20.42;5.57;;;5.80;99.90;;;;;;5091563;28;20060;-62
2022/11/24 07:30:58;;;;;;;12.18;3.45;;;5.80;99.90;;;;;;5087581;28;20051;-62
2022/11/24 07:33:25;;;;;;;9.02;3.50;;;5.70;99.90;;;;;;5084945;28;20059;-61
2022/11/24 07:35:53;;;;;;;14.02;4.10;;;5.80;99.90;;;;;;5085291;28;20106;-61
2022/11/24 07:38:21;;;;;;;19.70;5.80;;;5.70;99.90;;;;;;5084841;28;20075;-62
2022/11/24 07:40:47;;;;;;;12.93;4.25;;;5.70;99.90;;;;;;5086144;28;20048;-62
2022/11/24 07:43:14;;;;;;;15.63;4.03;;;5.70;99.90;;;;;;5087088;28;20060;-63
2022/11/24 07:45:42;;;;;;;14.57;4.28;;;5.70;99.90;;;;;;5085436;28;20040;-64
2022/11/24 07:48:10;;;;;;;18.80;4.10;;;5.70;99.90;;;;;;5091743;28;20050;-63
2022/11/24 07:50:37;;;;;;;12.00;4.30;;;5.80;99.90;;;;;;5092861;28;20454;-63
2022/11/24 07:53:05;;;;;;;10.50;3.72;;;5.80;99.90;;;;;;5090099;28;20052;-61
2022/11/24 07:55:32;;;;;;;20.38;4.82;;;5.90;99.90;;;;;;5092953;28;20407;-61
2022/11/24 07:58:00;;;;;;;15.35;4.45;;;6.00;99.90;;;;;;5094078;28;20090;-61
2022/11/24 08:00:27;;;;;;;10.50;4.15;;;6.20;99.90;;;;;;5093617;28;20040;-62
2022/11/24 08:02:54;;;;;;;15.80;4.90;;;6.60;99.90;;;;;;5093028;28;20040;-62
2022/11/24 08:05:21;;;;;;;16.02;4.35;;;7.10;99.90;;;;;;5093949;28;20051;-62
2022/11/24 08:07:48;;;;;;;9.45;3.42;;;7.60;99.90;;;;;;5092554;28;20052;-63
2022/11/24 08:10:17;;;;;;;15.40;4.00;;;8.10;99.90;;;;;;5093277;28;20044;-63
2022/11/24 08:12:44;;;;;;;12.45;4.68;;;8.60;99.90;;;;;;5091843;28;20056;-61
2022/11/24 08:15:11;;;;;;;15.15;4.75;;;9.00;99.90;;;;;;5091714;28;20380;-62
2022/11/24 08:17:38;;;;;;;14.07;5.20;;;9.40;99.90;;;;;;5091378;28;20226;-62
2022/11/24 08:20:06;;;;;;;10.38;4.05;;;9.80;99.90;;;;;;5091913;28;20052;-62
2022/11/24 08:22:33;;;;;;;12.70;4.25;;;10.10;99.90;;;;;;5092337;28;20048;-62
2022/11/24 08:25:00;;;;;;;10.23;3.40;;;10.10;99.90;;;;;;5092775;28;20048;-63
2022/11/24 08:27:29;;;;;;;13.93;4.80;;;9.90;99.90;;;;;;5093206;28;20500;-62
2022/11/24 08:29:56;;;;;;;12.30;3.60;;;9.90;99.90;;;;;;5090347;28;20431;-62
2022/11/24 08:32:23;;;;;;;8.90;3.70;;;9.60;99.90;;;;;;5091391;28;20106;-62
2022/11/24 08:34:50;;;;;;;14.07;3.85;;;9.50;99.90;;;;;;5093224;28;20101;-62
2022/11/24 08:37:17;;;;;;;14.52;3.50;;;9.90;99.90;;;;;;5093058;28;20047;-63
2022/11/24 08:39:44;;;;;;;11.82;3.53;;;10.60;99.90;;;;;;5092474;28;20514;-63
2022/11/24 08:42:10;;;;;;;8.32;3.42;;;11.40;99.90;;;;;;5091530;28;20055;-62
2022/11/24 08:44:39;;;;;;;9.13;3.72;;;12.00;99.90;;;;;;5092433;28;20044;-62
2022/11/24 08:47:06;;;;;;;8.75;3.60;;;12.60;99.90;;;;;;5092764;28;20048;-63
2022/11/24 08:49:32;;;;;;;11.68;4.68;;;13.20;99.90;;;;;;5091474;28;20101;-63
2022/11/24 08:51:59;;;;;;;9.18;3.65;;;13.80;99.90;;;;;;5090876;28;20113;-63
2022/11/24 08:54:26;;;;;;;12.90;3.40;;;14.30;99.90;;;;;;5091661;28;20052;-63
2022/11/24 08:56:53;;;;;;;9.05;3.28;;;14.40;99.90;;;;;;5090547;28;20040;-63
2022/11/24 08:59:20;;;;;;;10.85;3.60;;;14.80;99.90;;;;;;5092014;28;20035;-63
2022/11/24 09:01:49;;;;;;;7.80;2.95;;;15.10;99.90;;;;;;5090871;28;20067;-63
2022/11/24 09:04:16;;;;;;;12.13;3.55;;;15.50;99.90;;;;;;5092672;28;21359;-62
2022/11/24 09:06:42;;;;;;;13.48;3.38;;;15.70;99.90;;;;;;5090421;28;20044;-63
2022/11/24 09:09:10;;;;;;;11.93;3.65;;;14.90;99.90;;;;;;5091910;28;20047;-62
2022/11/24 09:11:37;;;;;;;8.70;3.17;;;14.20;99.90;;;;;;5088858;28;20051;-62
2022/11/24 09:14:04;;;;;;;8.98;3.50;;;13.30;99.90;;;;;;5092032;28;20060;-63
2022/11/24 09:16:31;;;;;;;9.43;3.22;;;12.50;99.90;;;;;;5089589;28;20513;-62
2022/11/24 09:19:01;;;;;;;8.38;3.65;;;11.80;99.90;;;;;;5090756;28;20051;-62
2022/11/24 09:21:28;;;;;;;6.60;2.75;;;11.50;99.90;;;;;;5090236;28;20048;-63
2022/11/24 09:23:56;;;;;;;9.02;3.35;;;11.60;99.90;;;;;;5089054;28;20048;-63
2022/11/24 09:26:25;;;;;;;13.70;4.63;;;12.40;99.90;;;;;;5090868;28;20051;-63
2022/11/24 09:28:54;;;;;;;10.88;3.72;;;13.30;99.90;;;;;;5088698;28;20442;-63
2022/11/24 09:31:24;;;;;;;9.30;3.40;;;14.40;99.90;;;;;;5092194;28;20047;-63
2022/11/24 09:33:51;;;;;;;;;;;15.10;99.90;;;;;;5089588;28;20052;-61
2022/11/24 09:36:20;;;;;;;11.77;3.28;;;15.70;99.90;;;;;;5090931;28;19921;-62
2022/11/24 09:38:47;;;;;;;8.80;3.22;;;16.40;99.90;;;;;;5086882;28;20052;-63
2022/11/24 09:41:41;;;;;;;7.47;2.72;;;16.80;99.90;;;;;;5089176;28;20051;-63
2022/11/24 09:44:24;;;;;;;5.45;2.50;;;16.80;99.90;;;;;;5084747;28;20071;-63
2022/11/24 09:46:58;;;;;;;7.15;2.53;;;17.40;99.90;;;;;;5090885;28;20044;-63
2022/11/24 09:49:32;;;;;;;5.30;2.65;;;17.50;99.90;;;;;;5090828;28;20048;-62
2022/11/24 09:52:03;;;;;;;5.25;2.10;;;17.40;99.90;;;;;;5088807;28;20056;-63
2022/11/24 09:54:32;;;;;;;6.57;2.33;;;17.60;99.90;;;;;;5088079;28;20044;-63
2022/11/24 09:57:01;;;;;;;4.85;2.33;;;17.80;99.90;;;;;;5088967;28;20048;-63
2022/11/24 09:59:28;;;;;;;5.40;2.22;;;17.80;99.90;;;;;;5088319;28;20044;-62
2022/11/24 10:01:55;;;;;;;5.32;2.00;;;18.00;99.90;;;;;;5089981;28;20040;-63
2022/11/24 10:04:27;;;;;;;6.40;1.90;;;18.20;99.90;;;;;;5091392;28;20079;-63
2022/11/24 10:07:04;;;;;;;4.88;2.33;;;18.40;99.90;;;;;;5091074;28;20044;-63
2022/11/24 10:09:45;;;;;;;13.68;8.30;;;18.20;99.90;;;;;;5088835;28;20377;-64
2022/11/24 10:12:27;;;;;;;6.22;2.10;;;18.50;99.90;;;;;;5084618;28;20146;-63
2022/11/24 10:15:10;;;;;;;4.70;2.00;;;18.10;99.90;;;;;;5090318;28;20595;-62
2022/11/24 10:17:49;;;;;;;7.32;2.38;;;17.70;99.90;;;;;;5090446;28;20051;-62
2022/11/24 10:20:26;;;;;;;5.35;1.90;;;18.10;99.90;;;;;;5088171;28;20052;-62
2022/11/24 10:23:07;;;;;;;7.75;2.30;;;18.60;99.90;;;;;;5087967;28;20484;-63
2022/11/24 10:25:42;;;;;;;5.57;2.03;;;19.20;99.90;;;;;;5089208;28;20446;-63
2022/11/24 10:28:12;;;;;;;4.70;2.15;;;19.50;99.00;;;;;;5091419;28;20052;-63
2022/11/24 10:30:39;;;;;;;6.70;2.38;;;19.10;98.90;;;;;;5090798;28;20044;-63
2022/11/24 10:33:16;;;;;;;4.47;2.05;;;19.20;98.90;;;;;;5091415;28;20060;-62
2022/11/24 10:35:46;;;;;;;4.55;1.77;;;19.40;99.50;;;;;;5089835;28;20048;-63
2022/11/24 10:38:30;;;;;;;3.95;1.70;;;18.60;99.80;;;;;;5090248;28;20056;-63
2022/11/24 10:40:59;;;;;;;5.22;1.73;;;18.60;99.70;;;;;;5088950;28;20055;-62
2022/11/24 10:43:27;;;;;;;6.13;2.10;;;18.40;99.60;;;;;;5089840;28;20063;-63
2022/11/24 10:45:55;;;;;;;6.85;1.90;;;18.40;99.90;;;;;;5091057;28;20507;-62
2022/11/24 10:48:25;;;;;;;8.23;1.80;;;17.10;99.90;;;;;;5089308;28;20492;-63
2022/11/24 10:50:56;;;;;;;4.95;2.25;;;16.20;99.90;;;;;;5090398;28;20412;-62
2022/11/24 10:53:29;;;;;;;6.93;1.88;;;15.90;99.90;;;;;;5085903;28;20052;-63
2022/11/24 10:56:05;;;;;;;4.80;1.92;;;15.50;99.90;;;;;;5075514;28;20475;-62
2022/11/24 10:58:34;;;;;;;8.18;2.08;;;16.40;99.90;;;;;;5083777;28;20495;-63
2022/11/24 11:01:18;;;;;;;7.53;2.15;;;17.30;99.90;;;;;;5081554;28;20040;-63
2022/11/24 11:03:47;;;;;;;4.70;1.95;;;18.10;99.90;;;;;;5085564;28;20051;-63
2022/11/24 11:06:20;;;;;;;4.68;2.25;;;18.30;99.90;;;;;;5082272;28;20059;-69
2022/11/24 11:08:48;;;;;;;6.85;1.98;;;19.10;99.90;;;;;;5087817;28;20052;-63
2022/11/24 11:11:20;;;;;;;7.20;1.67;;;19.30;99.70;;;;;;5085198;28;20495;-63
2022/11/24 11:13:54;;;;;;;4.82;1.88;;;19.90;98.70;;;;;;5090605;28;20044;-64
2022/11/24 11:16:35;;;;;;;5.75;2.00;;;20.50;98.30;;;;;;5086805;28;20048;-63
2022/11/24 11:19:03;;;;;;;6.45;2.35;;;20.60;96.50;;;;;;5086441;28;20109;-64
2022/11/24 11:21:36;;;;;;;4.35;1.60;;;20.70;96.60;;;;;;5089269;28;20052;-64
2022/11/24 11:24:14;;;;;;;6.93;2.35;;;21.40;96.00;;;;;;5095136;28;20137;-63
2022/11/24 11:26:42;;;;;;;7.03;2.00;;;21.80;95.20;;;;;;5090860;28;20083;-63
2022/11/24 11:29:19;;;;;;;6.93;2.22;;;22.00;94.70;;;;;;5086861;28;20093;-63
2022/11/24 11:31:58;;;;;;;6.15;2.58;;;21.70;92.90;;;;;;5084553;28;20052;-63
2022/11/24 11:34:25;;;;;;;6.00;2.30;;;21.70;93.50;;;;;;5087986;28;20154;-63
2022/11/24 11:36:53;;;;;;;6.78;2.10;;;21.90;94.10;;;;;;5086565;28;20048;-63
2022/11/24 11:39:25;;;;;;;7.05;2.38;;;22.30;93.60;;;;;;5089219;28;20070;-63
2022/11/24 11:42:00;;;;;;;4.65;1.80;;;22.20;91.80;;;;;;5085077;28;20060;-63
2022/11/24 11:44:36;;;;;;;5.45;2.00;;;22.30;92.70;;;;;;5089512;28;20040;-63
2022/11/24 11:47:17;;;;;;;4.88;2.05;;;22.20;91.90;;;;;;5087887;28;20044;-63
2022/11/24 11:49:45;;;;;;;6.18;2.00;;;22.20;91.10;;;;;;5084095;28;20044;-63
2022/11/24 11:52:41;;;;;;;6.30;2.20;;;21.70;92.40;;;;;;5087755;28;20052;-63
2022/11/24 11:55:36;;;;;;;5.88;2.00;;;22.00;91.90;;;;;;5083870;28;20059;-64
2022/11/24 11:58:15;;;;;;;9.40;2.22;;;22.00;90.90;;;;;;5069131;28;20130;-64
2022/11/24 12:00:50;;;;;;;5.25;2.08;;;22.50;90.60;;;;;;5089920;28;20055;-64
2022/11/24 12:03:38;;;;;;;5.03;2.22;;;21.80;90.40;;;;;;5087784;28;20060;-63
2022/11/24 12:06:18;;;;;;;5.35;2.05;;;21.90;90.60;;;;;;5086662;28;20052;-63
2022/11/24 12:08:54;;;;;;;6.93;2.37;;;22.00;91.20;;;;;;5086625;28;20441;-63
2022/11/24 12:11:30;;;;;;;6.22;2.33;;;22.30;90.50;;;;;;5087389;28;20480;-65
2022/11/24 12:14:09;;;;;;;8.32;2.58;;;22.40;90.00;;;;;;5084350;28;20051;-63
2022/11/24 12:16:46;;;;;;;10.07;2.55;;;22.50;90.70;;;;;;5081748;28;20063;-63
2022/11/24 12:19:31;;;;;;;7.45;2.00;;;22.60;90.30;;;;;;5084712;28;20565;-65
2022/11/24 12:22:07;;;;;;;5.45;2.30;;;22.30;89.80;;;;;;5087552;28;20070;-63
2022/11/24 12:24:43;;;;;;;8.82;2.30;;;21.80;90.30;;;;;;5088484;28;20056;-64
2022/11/24 12:27:23;;;;;;;5.57;2.17;;;21.40;91.00;;;;;;5097710;28;20044;-63
2022/11/24 12:30:01;;;;;;;;;;;21.70;90.70;;;;;;5083574;28;20056;-63
2022/11/24 12:32:55;;;;;;;8.73;2.30;;;21.50;90.90;;;;;;5082924;28;20384;-66
2022/11/24 12:35:28;;;;;;;7.47;2.25;;;21.70;90.90;;;;;;5091799;28;20488;-63
2022/11/24 12:38:05;;;;;;;6.50;2.03;;;22.10;90.90;;;;;;5090713;28;20044;-63
2022/11/24 12:40:48;;;;;;;6.10;2.28;;;22.00;91.00;;;;;;5093073;28;20090;-63
2022/11/24 12:43:21;;;;;;;10.45;2.15;;;22.10;91.10;;;;;;5092132;28;20048;-63
2022/11/24 12:45:55;;;;;;;6.68;2.28;;;22.40;90.00;;;;;;5089714;28;20080;-64
2022/11/24 12:48:55;;;;;;;7.97;2.75;;;22.30;89.80;;;;;;5092525;28;20400;-64
2022/11/24 12:51:28;;;;;;;6.73;2.10;;;21.70;89.70;;;;;;5048110;28;20056;-63
2022/11/24 12:53:57;;;;;;;8.35;2.13;;;21.40;90.90;;;;;;5093363;28;20048;-63
2022/11/24 12:56:31;;;;;;;10.03;2.50;;;21.00;90.80;;;;;;5093459;28;20475;-64
2022/11/24 12:59:12;;;;;;;9.48;2.05;;;21.10;91.10;;;;;;5092588;28;20051;-63
2022/11/24 13:01:47;;;;;;;5.72;2.17;;;21.20;91.40;;;;;;5091980;28;20043;-63